createdAt,value
2018-01-19T00:00:30.640Z,4.80
2018-01-19T00:02:59.097Z,4.70
2018-01-19T00:05:28.186Z,4.70
2018-01-19T00:07:57.944Z,4.80
2018-01-19T00:10:26.883Z,4.80
2018-01-19T00:12:55.881Z,4.80
2018-01-19T00:15:24.668Z,4.80
2018-01-19T00:17:54.135Z,4.90
2018-01-19T00:20:23.061Z,4.80
2018-01-19T00:22:52.053Z,4.80
2018-01-19T00:25:21.140Z,4.70
2018-01-19T00:27:50.051Z,4.70
2018-01-19T00:30:18.764Z,4.70
2018-01-19T00:32:47.885Z,4.70
2018-01-19T00:35:16.429Z,4.70
2018-01-19T00:37:45.482Z,4.80
2018-01-19T00:40:14.699Z,4.70
2018-01-19T00:42:46.121Z,4.70
2018-01-19T00:45:15.487Z,4.80
2018-01-19T00:47:44.771Z,4.70
2018-01-19T00:50:13.643Z,4.70
2018-01-19T00:52:42.100Z,4.60
2018-01-19T00:55:10.848Z,4.70
2018-01-19T00:57:40.699Z,4.70
2018-01-19T01:00:10.477Z,4.70
2018-01-19T01:02:39.250Z,4.70
2018-01-19T01:05:07.832Z,4.70
2018-01-19T01:07:38.197Z,4.70
2018-01-19T01:10:06.949Z,4.70
2018-01-19T01:12:36.611Z,4.70
2018-01-19T01:15:05.738Z,4.80
2018-01-19T01:17:34.448Z,4.70
2018-01-19T01:20:03.719Z,4.70
2018-01-19T01:22:31.952Z,4.80
2018-01-19T01:25:00.890Z,4.80
2018-01-19T01:27:29.565Z,4.70
2018-01-19T01:30:00.138Z,4.80
2018-01-19T01:32:29.010Z,4.70
2018-01-19T01:34:58.037Z,4.80
2018-01-19T01:37:26.259Z,4.80
2018-01-19T01:39:55.448Z,4.80
2018-01-19T01:42:24.572Z,4.80
2018-01-19T01:44:53.087Z,4.80
2018-01-19T01:47:22.135Z,4.90
2018-01-19T01:49:50.899Z,4.90
2018-01-19T01:52:19.134Z,4.90
2018-01-19T01:54:47.556Z,4.90
2018-01-19T01:57:16.471Z,5.00
2018-01-19T01:59:45.729Z,4.90
2018-01-19T02:02:14.048Z,5.00
2018-01-19T02:04:42.853Z,5.00
2018-01-19T02:07:11.882Z,5.00
2018-01-19T02:09:41.023Z,5.10
2018-01-19T02:12:09.205Z,5.00
2018-01-19T02:14:38.006Z,5.10
2018-01-19T02:17:06.458Z,5.20
2018-01-19T02:19:35.343Z,5.10
2018-01-19T02:22:04.042Z,5.20
2018-01-19T02:24:32.956Z,5.20
2018-01-19T02:27:01.640Z,5.10
2018-01-19T02:29:30.829Z,5.10
2018-01-19T02:31:59.899Z,5.20
2018-01-19T02:34:28.689Z,5.20
2018-01-19T02:36:57.916Z,5.20
2018-01-19T02:39:28.266Z,5.20
2018-01-19T02:41:57.787Z,5.20
2018-01-19T02:59:49.290Z,5.20
2018-01-19T03:02:18.586Z,5.00
2018-01-19T03:04:47.242Z,5.00
2018-01-19T03:07:15.963Z,5.00
2018-01-19T03:09:45.265Z,5.00
2018-01-19T03:12:14.100Z,5.00
2018-01-19T03:14:43.817Z,4.90
2018-01-19T03:17:13.048Z,4.90
2018-01-19T03:19:42.372Z,5.00
2018-01-19T03:22:10.502Z,4.90
2018-01-19T03:24:38.939Z,5.00
2018-01-19T03:27:08.125Z,4.90
2018-01-19T03:29:37.681Z,4.80
2018-01-19T03:32:06.275Z,4.90
2018-01-19T03:34:35.140Z,4.90
2018-01-19T03:37:03.638Z,4.80
2018-01-19T03:39:32.441Z,4.90
2018-01-19T03:42:01.462Z,4.90
2018-01-19T03:44:30.813Z,4.90
2018-01-19T03:46:59.772Z,5.00
2018-01-19T03:49:29.389Z,4.90
2018-01-19T03:51:58.098Z,5.00
2018-01-19T03:54:27.087Z,4.90
2018-01-19T03:56:56.206Z,5.00
2018-01-19T03:59:24.350Z,5.00
2018-01-19T04:01:52.842Z,5.00
2018-01-19T04:04:22.372Z,5.00
2018-01-19T04:06:50.877Z,5.00
2018-01-19T04:09:19.462Z,4.90
2018-01-19T04:11:48.431Z,5.00
2018-01-19T04:14:18.716Z,4.90
2018-01-19T04:16:47.454Z,4.90
2018-01-19T04:19:15.784Z,4.90
2018-01-19T04:21:45.081Z,4.90
2018-01-19T04:24:13.301Z,4.90
2018-01-19T04:26:41.538Z,4.90
2018-01-19T04:29:10.361Z,4.90
2018-01-19T04:31:39.121Z,4.90
2018-01-19T04:34:09.432Z,4.90
2018-01-19T04:36:38.259Z,4.90
2018-01-19T04:39:06.768Z,4.90
2018-01-19T04:41:36.944Z,4.80
2018-01-19T04:44:06.182Z,4.80
2018-01-19T04:46:34.558Z,4.80
2018-01-19T04:49:03.574Z,4.80
2018-01-19T04:51:32.645Z,4.70
2018-01-19T04:54:01.246Z,4.70
2018-01-19T04:56:30.817Z,4.70
2018-01-19T04:58:59.547Z,4.60
2018-01-19T05:01:28.314Z,4.60
2018-01-19T05:03:57.193Z,4.60
2018-01-19T05:06:26.914Z,4.60
2018-01-19T05:08:55.901Z,4.50
2018-01-19T05:11:25.056Z,4.50
2018-01-19T05:13:53.258Z,4.50
2018-01-19T05:16:22.627Z,4.50
2018-01-19T05:18:50.936Z,4.50
2018-01-19T05:21:19.909Z,4.20
2018-01-19T05:23:49.360Z,3.80
2018-01-19T05:26:17.609Z,3.50
2018-01-19T05:28:46.727Z,3.20
2018-01-19T05:31:16.156Z,3.10
2018-01-19T05:33:44.828Z,3.00
2018-01-19T05:36:13.722Z,3.00
2018-01-19T05:38:42.814Z,2.90
2018-01-19T05:41:12.260Z,2.90
2018-01-19T05:43:40.654Z,2.80
2018-01-19T05:46:08.881Z,2.80
2018-01-19T05:48:38.232Z,2.90
2018-01-19T05:51:06.776Z,2.90
2018-01-19T05:53:35.244Z,2.90
2018-01-19T05:56:04.162Z,3.00
2018-01-19T05:58:32.884Z,3.00
2018-01-19T06:01:02.579Z,3.00
2018-01-19T06:03:31.234Z,3.10
2018-01-19T06:06:00.320Z,3.10
2018-01-19T06:08:29.474Z,3.20
2018-01-19T06:10:58.145Z,3.20
2018-01-19T06:13:27.711Z,3.20
2018-01-19T06:15:56.105Z,3.30
2018-01-19T06:18:25.812Z,3.20
2018-01-19T06:20:55.304Z,3.20
2018-01-19T06:23:24.691Z,3.30
2018-01-19T06:25:54.173Z,3.30
2018-01-19T06:28:22.850Z,3.30
2018-01-19T06:30:52.305Z,3.30
2018-01-19T06:33:21.674Z,3.30
2018-01-19T06:35:50.943Z,3.20
2018-01-19T06:38:19.487Z,3.20
2018-01-19T06:40:48.775Z,3.20
2018-01-19T06:43:18.019Z,3.20
2018-01-19T06:45:47.080Z,3.20
2018-01-19T06:48:17.418Z,3.20
2018-01-19T06:50:46.384Z,3.20
2018-01-19T06:53:16.508Z,3.20
2018-01-19T06:55:45.808Z,3.20
2018-01-19T06:58:14.930Z,3.10
2018-01-19T07:00:44.403Z,3.20
2018-01-19T07:03:14.175Z,3.20
2018-01-19T07:05:43.046Z,3.20
2018-01-19T07:08:12.082Z,3.30
2018-01-19T07:10:41.173Z,3.30
2018-01-19T07:13:09.965Z,3.30
2018-01-19T07:15:39.501Z,3.40
2018-01-19T07:18:07.662Z,3.30
2018-01-19T07:20:36.376Z,3.30
2018-01-19T07:23:06.335Z,3.30
2018-01-19T07:25:34.610Z,3.30
2018-01-19T07:28:05.220Z,3.40
2018-01-19T07:30:35.459Z,3.40
2018-01-19T07:33:05.497Z,3.30
2018-01-19T07:35:33.693Z,3.30
2018-01-19T07:38:02.401Z,3.30
2018-01-19T07:40:31.300Z,3.20
2018-01-19T07:42:59.505Z,3.20
2018-01-19T07:45:27.880Z,3.10
2018-01-19T07:47:56.597Z,3.10
2018-01-19T07:50:25.187Z,3.10
2018-01-19T07:52:54.783Z,3.00
2018-01-19T07:55:24.083Z,3.00
2018-01-19T07:57:52.753Z,3.00
2018-01-19T08:00:21.123Z,3.00
2018-01-19T08:02:50.136Z,3.00
2018-01-19T08:05:18.625Z,3.00
2018-01-19T08:07:47.269Z,2.90
2018-01-19T08:10:15.627Z,2.80
2018-01-19T08:12:44.149Z,2.90
2018-01-19T08:15:12.909Z,2.90
2018-01-19T08:17:42.014Z,2.90
2018-01-19T08:20:10.447Z,2.90
2018-01-19T08:22:38.901Z,2.90
2018-01-19T08:25:08.080Z,2.90
2018-01-19T08:27:37.240Z,2.80
2018-01-19T08:30:06.374Z,2.90
2018-01-19T08:32:35.796Z,2.90
2018-01-19T08:35:05.003Z,3.10
2018-01-19T08:37:33.651Z,3.10
2018-01-19T08:40:02.546Z,3.50
2018-01-19T08:42:32.960Z,3.70
2018-01-19T08:45:01.739Z,3.70
2018-01-19T08:47:30.766Z,3.50
2018-01-19T08:50:00.500Z,3.40
2018-01-19T08:52:29.363Z,3.20
2018-01-19T08:54:59.308Z,3.10
2018-01-19T08:57:27.603Z,3.20
2018-01-19T08:59:56.985Z,3.20
2018-01-19T09:02:25.720Z,3.20
2018-01-19T09:04:54.390Z,3.20
2018-01-19T09:07:23.431Z,3.20
2018-01-19T09:09:52.225Z,3.20
2018-01-19T09:12:21.335Z,3.10
2018-01-19T09:14:49.885Z,3.10
2018-01-19T09:17:19.945Z,3.10
2018-01-19T09:19:48.824Z,3.10
2018-01-19T09:22:18.172Z,3.20
2018-01-19T09:24:46.892Z,3.20
2018-01-19T09:27:16.505Z,3.40
2018-01-19T09:29:46.131Z,3.50
2018-01-19T09:32:15.626Z,3.60
2018-01-19T09:34:44.587Z,3.70
2018-01-19T09:37:13.185Z,3.80
2018-01-19T09:39:42.375Z,3.80
2018-01-19T09:42:11.097Z,3.90
2018-01-19T09:44:40.224Z,3.90
2018-01-19T09:47:08.976Z,3.90
2018-01-19T09:49:38.286Z,3.90
2018-01-19T09:52:07.327Z,3.90
2018-01-19T09:54:36.060Z,4.00
2018-01-19T09:57:04.908Z,3.90
2018-01-19T09:59:33.964Z,3.90
2018-01-19T10:02:03.065Z,3.90
2018-01-19T10:04:31.278Z,3.90
2018-01-19T10:07:00.132Z,4.00
2018-01-19T10:09:29.666Z,4.00
2018-01-19T10:11:58.301Z,3.90
2018-01-19T10:14:28.871Z,3.90
2018-01-19T10:16:57.191Z,4.00
2018-01-19T10:19:26.310Z,4.00
2018-01-19T10:21:55.187Z,4.10
2018-01-19T10:24:23.850Z,4.30
2018-01-19T10:26:52.469Z,4.40
2018-01-19T10:29:21.529Z,4.50
2018-01-19T10:31:50.066Z,4.60
2018-01-19T10:34:18.808Z,4.60
2018-01-19T10:36:47.616Z,4.60
2018-01-19T10:39:16.826Z,4.50
2018-01-19T10:41:46.165Z,4.50
2018-01-19T10:44:14.886Z,4.50
2018-01-19T10:46:43.621Z,4.50
2018-01-19T10:49:11.914Z,4.50
2018-01-19T10:51:41.295Z,4.60
2018-01-19T10:54:10.865Z,4.50
2018-01-19T10:56:39.218Z,4.60
2018-01-19T10:59:09.032Z,4.80
2018-01-19T11:01:37.801Z,4.80
2018-01-19T11:04:06.766Z,4.90
2018-01-19T11:06:35.427Z,5.10
2018-01-19T11:09:04.595Z,5.20
2018-01-19T11:11:32.772Z,5.10
2018-01-19T11:14:01.827Z,5.30
2018-01-19T11:16:30.905Z,5.40
2018-01-19T11:18:59.408Z,5.40
2018-01-19T11:21:27.916Z,5.60
2018-01-19T11:23:56.594Z,5.70
2018-01-19T11:26:25.505Z,5.70
2018-01-19T11:28:55.152Z,5.60
2018-01-19T11:31:24.449Z,5.60
2018-01-19T11:33:53.149Z,5.60
2018-01-19T11:36:21.776Z,5.60
2018-01-19T11:38:51.110Z,6.00
2018-01-19T11:41:19.815Z,6.00
2018-01-19T11:43:48.706Z,6.00
2018-01-19T11:46:18.307Z,6.20
2018-01-19T11:48:46.604Z,6.40
2018-01-19T11:51:15.506Z,6.70
2018-01-19T11:53:44.222Z,7.10
2018-01-19T11:56:12.952Z,7.60
2018-01-19T11:58:41.158Z,8.30
2018-01-19T12:01:10.453Z,8.60
2018-01-19T12:03:39.568Z,8.00
2018-01-19T12:06:08.525Z,8.00
2018-01-19T12:08:37.219Z,7.60
2018-01-19T12:11:06.236Z,7.30
2018-01-19T12:13:35.269Z,6.90
2018-01-19T12:16:04.152Z,6.70
2018-01-19T12:18:32.255Z,6.50
2018-01-19T12:21:01.582Z,6.40
2018-01-19T12:23:30.846Z,6.50
2018-01-19T12:26:01.787Z,7.00
2018-01-19T12:28:30.583Z,7.00
2018-01-19T12:31:00.515Z,7.60
2018-01-19T12:33:29.516Z,7.60
2018-01-19T12:35:58.890Z,7.80
2018-01-19T12:38:27.728Z,7.80
2018-01-19T12:40:56.214Z,7.60
2018-01-19T12:43:24.846Z,7.40
2018-01-19T12:45:54.474Z,7.30
2018-01-19T12:48:23.589Z,7.30
2018-01-19T12:50:52.560Z,7.20
2018-01-19T12:53:21.243Z,7.30
2018-01-19T12:55:49.932Z,7.70
2018-01-19T12:58:18.488Z,7.90
2018-01-19T13:00:47.906Z,8.40
2018-01-19T13:03:16.508Z,8.40
2018-01-19T13:05:45.148Z,8.00
2018-01-19T13:08:16.592Z,7.60
2018-01-19T13:10:45.650Z,7.90
2018-01-19T13:13:14.408Z,7.90
2018-01-19T13:15:43.086Z,8.20
2018-01-19T13:18:11.746Z,8.60
2018-01-19T13:20:40.033Z,9.00
2018-01-19T13:23:08.993Z,9.60
2018-01-19T13:25:37.859Z,9.30
2018-01-19T13:28:06.602Z,9.30
2018-01-19T13:30:35.470Z,9.20
2018-01-19T13:33:04.850Z,8.90
2018-01-19T13:35:34.553Z,8.70
2018-01-19T13:38:02.945Z,8.50
2018-01-19T13:40:32.573Z,8.50
2018-01-19T13:43:01.269Z,8.00
2018-01-19T13:45:30.551Z,7.60
2018-01-19T13:47:59.970Z,7.20
2018-01-19T13:50:29.568Z,7.20
2018-01-19T13:52:57.920Z,7.10
2018-01-19T13:55:27.836Z,6.80
2018-01-19T13:57:56.777Z,6.80
2018-01-19T14:00:26.808Z,6.70
2018-01-19T14:02:56.202Z,6.50
2018-01-19T14:05:24.528Z,6.50
2018-01-19T14:07:53.178Z,6.50
2018-01-19T14:10:21.456Z,6.50
2018-01-19T14:12:50.388Z,6.50
2018-01-19T14:15:18.764Z,6.40
2018-01-19T14:17:47.815Z,6.30
2018-01-19T14:20:16.536Z,6.40
2018-01-19T14:22:45.747Z,6.10
2018-01-19T14:25:15.719Z,6.20
2018-01-19T14:27:44.312Z,6.20
2018-01-19T14:30:13.385Z,6.00
2018-01-19T14:32:43.792Z,6.00
2018-01-19T14:35:14.145Z,5.90
2018-01-19T14:37:42.776Z,5.80
2018-01-19T14:40:12.018Z,5.80
2018-01-19T14:42:42.814Z,5.60
2018-01-19T14:45:11.578Z,5.60
2018-01-19T14:47:40.230Z,5.70
2018-01-19T14:50:09.296Z,5.80
2018-01-19T14:52:37.752Z,5.70
2018-01-19T14:55:05.982Z,5.80
2018-01-19T14:57:34.621Z,5.80
2018-01-19T15:00:02.958Z,5.90
2018-01-19T15:02:31.754Z,5.80
2018-01-19T15:05:00.938Z,5.80
2018-01-19T15:07:29.754Z,5.70
2018-01-19T15:09:59.283Z,5.70
2018-01-19T15:12:28.004Z,5.60
2018-01-19T15:14:57.140Z,5.60
2018-01-19T15:17:26.248Z,5.50
2018-01-19T15:19:55.283Z,5.40
2018-01-19T15:22:23.976Z,5.50
2018-01-19T15:24:52.709Z,5.40
2018-01-19T15:27:22.125Z,5.30
2018-01-19T15:29:50.396Z,5.30
2018-01-19T15:32:19.236Z,5.30
2018-01-19T15:34:48.521Z,5.20
2018-01-19T15:37:17.105Z,5.20
2018-01-19T15:39:47.508Z,5.10
2018-01-19T15:42:16.526Z,5.00
2018-01-19T15:44:45.079Z,5.00
2018-01-19T15:47:13.310Z,4.90
2018-01-19T15:49:41.976Z,4.90
2018-01-19T15:52:10.796Z,4.90
2018-01-19T15:54:39.328Z,4.90
2018-01-19T15:57:08.794Z,4.90
2018-01-19T15:59:37.480Z,4.80
2018-01-19T16:02:06.372Z,4.80
2018-01-19T16:04:35.085Z,4.80
2018-01-19T16:07:04.023Z,4.70
2018-01-19T16:09:32.738Z,4.60
2018-01-19T16:12:01.808Z,4.60
2018-01-19T16:14:31.578Z,4.40
2018-01-19T16:17:00.695Z,4.40
2018-01-19T16:19:29.355Z,4.30
2018-01-19T16:21:57.883Z,4.20
2018-01-19T16:24:26.063Z,4.30
2018-01-19T16:26:54.964Z,4.30
2018-01-19T16:29:25.266Z,4.20
2018-01-19T16:31:53.810Z,4.20
2018-01-19T16:34:22.951Z,4.20
2018-01-19T16:36:51.675Z,4.20
2018-01-19T16:39:21.231Z,4.10
2018-01-19T16:41:49.641Z,4.10
2018-01-19T16:44:19.524Z,4.10
2018-01-19T16:46:48.129Z,4.00
2018-01-19T16:49:17.112Z,3.90
2018-01-19T16:51:46.467Z,3.90
2018-01-19T16:54:14.768Z,3.90
2018-01-19T16:56:43.493Z,3.80
2018-01-19T16:59:12.183Z,4.00
2018-01-19T17:01:41.354Z,4.00
2018-01-19T17:04:10.409Z,4.00
2018-01-19T17:06:38.631Z,4.00
2018-01-19T17:09:08.215Z,4.00
2018-01-19T17:11:36.839Z,3.90
2018-01-19T17:14:05.895Z,4.00
2018-01-19T17:16:34.232Z,3.90
2018-01-19T17:19:02.449Z,3.90
2018-01-19T17:21:31.683Z,3.70
2018-01-19T17:24:00.563Z,3.70
2018-01-19T17:26:30.879Z,3.50
2018-01-19T17:29:00.003Z,3.40
2018-01-19T17:31:29.053Z,3.40
2018-01-19T17:33:57.728Z,3.30
2018-01-19T17:36:27.096Z,3.20
2018-01-19T17:38:56.452Z,3.20
2018-01-19T17:41:25.222Z,3.20
2018-01-19T17:43:54.014Z,3.20
2018-01-19T17:46:23.005Z,3.20
2018-01-19T17:48:52.073Z,3.20
2018-01-19T17:51:20.365Z,3.20
2018-01-19T17:53:48.493Z,3.20
2018-01-19T17:56:17.185Z,3.20
2018-01-19T17:58:46.607Z,3.20
2018-01-19T18:01:15.382Z,3.20
2018-01-19T18:03:44.468Z,3.20
2018-01-19T18:06:13.776Z,3.10
2018-01-19T18:08:43.036Z,3.10
2018-01-19T18:11:12.215Z,3.10
2018-01-19T18:13:40.704Z,3.00
2018-01-19T18:16:10.018Z,3.00
2018-01-19T18:18:39.228Z,2.90
2018-01-19T18:21:07.404Z,3.60
2018-01-19T18:23:36.931Z,2.90
2018-01-19T18:26:06.608Z,2.90
2018-01-19T18:28:35.942Z,2.90
2018-01-19T18:31:04.866Z,2.90
2018-01-19T18:33:34.243Z,2.90
2018-01-19T18:36:02.774Z,3.00
2018-01-19T18:38:31.010Z,3.00
2018-01-19T18:40:59.765Z,3.00
2018-01-19T18:43:28.455Z,3.00
2018-01-19T18:45:57.731Z,3.00
2018-01-19T18:48:26.611Z,3.00
2018-01-19T18:50:55.250Z,3.00
2018-01-19T18:53:24.548Z,2.90
2018-01-19T18:55:53.171Z,3.00
2018-01-19T18:58:22.284Z,3.00
2018-01-19T19:00:51.417Z,3.00
2018-01-19T19:03:20.171Z,3.00
2018-01-19T19:05:48.708Z,3.00
2018-01-19T19:08:17.451Z,3.00
2018-01-19T19:10:45.672Z,3.00
2018-01-19T19:13:15.104Z,3.10
2018-01-19T19:15:43.973Z,3.10
2018-01-19T19:18:13.455Z,3.10
2018-01-19T19:20:41.619Z,3.10
2018-01-19T19:23:10.287Z,3.10
2018-01-19T19:25:38.542Z,3.00
2018-01-19T19:28:06.661Z,3.00
2018-01-19T19:30:35.843Z,3.00
2018-01-19T19:33:04.364Z,3.00
2018-01-19T19:35:33.118Z,3.00
2018-01-19T19:38:02.455Z,3.00
2018-01-19T19:40:30.973Z,3.00
2018-01-19T19:42:59.698Z,3.00
2018-01-19T19:45:30.567Z,3.00
2018-01-19T19:47:59.246Z,3.10
2018-01-19T19:50:28.717Z,3.10
2018-01-19T19:52:56.893Z,3.00
2018-01-19T19:55:26.259Z,3.00
2018-01-19T19:57:54.962Z,3.00
2018-01-19T20:00:23.942Z,3.00
2018-01-19T20:02:52.304Z,2.90
2018-01-19T20:05:24.984Z,2.90
2018-01-19T20:07:53.295Z,2.80
2018-01-19T20:10:22.891Z,2.80
2018-01-19T20:12:52.016Z,2.70
2018-01-19T20:15:20.280Z,2.70
2018-01-19T20:17:48.686Z,2.70
2018-01-19T20:20:16.986Z,2.70
2018-01-19T20:22:46.183Z,2.70
2018-01-19T20:25:15.421Z,2.60
2018-01-19T20:27:43.779Z,2.60
2018-01-19T20:30:12.066Z,2.70
2018-01-19T20:32:40.831Z,2.70
2018-01-19T20:35:09.111Z,2.80
2018-01-19T20:37:38.783Z,2.70
2018-01-19T20:40:09.097Z,2.70
2018-01-19T20:42:42.867Z,2.70
2018-01-19T20:45:12.527Z,2.80
2018-01-19T20:47:41.567Z,2.80
2018-01-19T20:50:10.889Z,2.90
2018-01-19T20:52:39.239Z,2.90
2018-01-19T20:55:08.172Z,3.00
2018-01-19T20:57:36.706Z,3.00
2018-01-19T21:00:04.878Z,3.00
2018-01-19T21:02:33.218Z,3.00
2018-01-19T21:05:02.284Z,3.00
2018-01-19T21:07:32.102Z,3.00
2018-01-19T21:10:00.539Z,3.00
2018-01-19T21:12:29.111Z,3.00
2018-01-19T21:14:57.643Z,3.00
2018-01-19T21:17:26.226Z,2.90
2018-01-19T21:19:56.090Z,2.90
2018-01-19T21:22:24.324Z,2.90
2018-01-19T21:24:53.009Z,2.90
2018-01-19T21:27:21.402Z,2.90
2018-01-19T21:29:49.654Z,2.90
2018-01-19T21:32:19.663Z,2.90
2018-01-19T21:34:48.314Z,2.80
2018-01-19T21:37:17.658Z,2.90
2018-01-19T21:39:46.332Z,2.90
2018-01-19T21:42:15.187Z,2.90
2018-01-19T21:44:43.399Z,2.80
2018-01-19T21:47:11.968Z,2.80
2018-01-19T21:49:41.325Z,2.80
2018-01-19T21:52:10.582Z,2.80
2018-01-19T21:54:39.244Z,2.70
2018-01-19T21:57:08.535Z,2.80
2018-01-19T21:59:38.156Z,2.80
2018-01-19T22:02:07.224Z,2.90
2018-01-19T22:04:36.152Z,2.90
2018-01-19T22:07:04.601Z,2.90
2018-01-19T22:09:32.999Z,2.90
2018-01-19T22:12:02.207Z,2.90
2018-01-19T22:14:31.564Z,2.90
2018-01-19T22:17:00.829Z,2.90
2018-01-19T22:19:29.846Z,2.80
2018-01-19T22:21:59.243Z,2.90
2018-01-19T22:24:27.839Z,2.90
2018-01-19T22:26:57.423Z,2.90
2018-01-19T22:29:26.348Z,2.80
2018-01-19T22:31:55.408Z,2.70
2018-01-19T22:34:24.348Z,2.70
2018-01-19T22:36:52.742Z,2.70
2018-01-19T22:39:22.129Z,2.70
2018-01-19T22:41:51.577Z,2.70
2018-01-19T22:44:20.050Z,2.70
2018-01-19T22:46:48.978Z,2.70
2018-01-19T22:49:17.635Z,2.70
2018-01-19T22:51:45.767Z,2.70
2018-01-19T22:54:14.536Z,2.70
2018-01-19T22:56:42.799Z,2.70
2018-01-19T22:59:11.888Z,2.70
2018-01-19T23:01:41.146Z,2.70
2018-01-19T23:04:11.733Z,2.60
2018-01-19T23:06:40.606Z,2.60
2018-01-19T23:09:09.080Z,2.50
2018-01-19T23:11:38.829Z,2.50
2018-01-19T23:14:07.664Z,2.50
2018-01-19T23:16:36.080Z,2.60
2018-01-19T23:19:04.933Z,2.60
2018-01-19T23:21:33.973Z,2.60
2018-01-19T23:24:03.640Z,2.60
2018-01-19T23:26:32.796Z,2.60
2018-01-19T23:29:01.533Z,2.60
2018-01-19T23:31:31.219Z,2.60
2018-01-19T23:34:00.226Z,2.60
2018-01-19T23:36:28.856Z,2.70
2018-01-19T23:38:57.493Z,2.60
2018-01-19T23:41:26.621Z,2.60
2018-01-19T23:43:54.862Z,2.70
2018-01-19T23:46:23.853Z,2.70
2018-01-19T23:48:52.670Z,2.70
2018-01-19T23:51:21.867Z,2.60
2018-01-19T23:53:51.189Z,2.40
2018-01-19T23:56:20.186Z,2.40
2018-01-19T23:58:48.843Z,2.30
